createdAt,value
2023-05-22T00:01:49.454Z,94.70
2023-05-22T00:04:22.058Z,94.70
2023-05-22T00:06:50.860Z,94.70
2023-05-22T00:09:19.160Z,94.80
2023-05-22T00:11:47.496Z,94.80
2023-05-22T00:14:15.938Z,94.80
2023-05-22T00:16:44.368Z,94.80
2023-05-22T00:19:17.306Z,94.80
2023-05-22T00:21:47.034Z,94.80
2023-05-22T00:24:15.532Z,94.70
2023-05-22T00:26:43.973Z,94.70
2023-05-22T00:29:12.335Z,94.70
2023-05-22T00:31:40.672Z,94.70
2023-05-22T00:34:09.023Z,94.70
2023-05-22T00:36:38.835Z,94.70
2023-05-22T00:39:07.226Z,94.70
2023-05-22T00:41:35.596Z,94.60
2023-05-22T00:44:04.025Z,94.90
2023-05-22T00:46:33.409Z,94.70
2023-05-22T00:49:01.687Z,94.70
2023-05-22T00:51:30.642Z,94.60
2023-05-22T00:54:00.353Z,94.60
2023-05-22T00:56:29.313Z,94.60
2023-05-22T00:58:58.186Z,94.70
2023-05-22T01:01:33.707Z,94.60
2023-05-22T01:04:04.051Z,94.70
2023-05-22T01:06:33.106Z,94.60
2023-05-22T01:09:04.743Z,94.70
2023-05-22T01:11:39.183Z,94.60
2023-05-22T01:14:15.943Z,94.70
2023-05-22T01:16:54.698Z,94.70
2023-05-22T01:20:02.160Z,94.70
2023-05-22T01:22:58.763Z,94.70
2023-05-22T01:25:59.650Z,94.70
2023-05-22T01:29:08.040Z,94.80
2023-05-22T01:31:42.510Z,94.70
2023-05-22T01:34:13.247Z,94.70
2023-05-22T01:36:43.495Z,94.80
2023-05-22T01:39:13.049Z,94.80
2023-05-22T01:41:42.819Z,94.90
2023-05-22T01:44:11.507Z,94.90
2023-05-22T01:46:41.486Z,94.90
2023-05-22T01:49:10.581Z,95.00
2023-05-22T01:51:50.204Z,94.90
2023-05-22T01:54:24.346Z,94.90
2023-05-22T01:56:57.160Z,95.00
2023-05-22T01:59:32.126Z,95.00
2023-05-22T02:02:07.017Z,95.00
2023-05-22T02:04:39.730Z,94.90
2023-05-22T02:07:12.062Z,94.90
2023-05-22T02:09:42.115Z,95.00
2023-05-22T02:12:11.294Z,95.00
2023-05-22T02:14:39.931Z,95.00
2023-05-22T02:17:09.657Z,95.10
2023-05-22T02:19:38.149Z,95.10
2023-05-22T02:22:09.960Z,95.10
2023-05-22T02:24:38.291Z,95.20
2023-05-22T02:27:06.885Z,95.30
2023-05-22T02:29:35.232Z,95.30
2023-05-22T02:32:04.158Z,95.30
2023-05-22T02:34:33.895Z,95.30
2023-05-22T02:37:05.056Z,95.30
2023-05-22T02:39:33.446Z,95.20
2023-05-22T02:42:02.137Z,95.30
2023-05-22T02:44:30.560Z,95.30
2023-05-22T02:46:59.018Z,95.40
2023-05-22T02:49:27.331Z,95.40
2023-05-22T02:51:58.309Z,95.40
2023-05-22T02:54:26.657Z,95.40
2023-05-22T02:56:54.950Z,95.40
2023-05-22T02:59:23.375Z,95.40
2023-05-22T03:01:54.504Z,95.40
2023-05-22T03:04:22.994Z,95.40
2023-05-22T03:06:51.383Z,95.40
2023-05-22T03:09:21.602Z,95.40
2023-05-22T03:11:50.312Z,95.50
2023-05-22T03:14:20.130Z,95.50
2023-05-22T03:16:48.508Z,95.60
2023-05-22T03:19:18.259Z,95.60
2023-05-22T03:21:48.573Z,95.60
2023-05-22T03:24:17.263Z,95.70
2023-05-22T03:26:47.316Z,95.70
2023-05-22T03:29:16.125Z,95.70
2023-05-22T03:31:44.774Z,95.70
2023-05-22T03:34:13.232Z,95.70
2023-05-22T03:36:42.724Z,95.70
2023-05-22T03:39:11.210Z,95.70
2023-05-22T03:41:39.639Z,95.80
2023-05-22T03:44:09.442Z,95.80
2023-05-22T03:46:37.821Z,95.80
2023-05-22T03:49:06.312Z,95.80
2023-05-22T03:51:34.941Z,95.80
2023-05-22T03:54:03.391Z,95.90
2023-05-22T03:56:31.756Z,95.80
2023-05-22T03:59:00.286Z,95.70
2023-05-22T04:01:31.587Z,95.70
2023-05-22T04:03:59.706Z,95.70
2023-05-22T04:06:27.875Z,95.70
2023-05-22T04:08:56.090Z,95.70
2023-05-22T04:11:24.213Z,95.70
2023-05-22T04:13:52.322Z,95.70
2023-05-22T04:16:21.002Z,95.70
2023-05-22T04:18:50.495Z,95.70
2023-05-22T04:21:19.107Z,95.80
2023-05-22T04:23:47.678Z,95.70
2023-05-22T04:26:15.949Z,95.70
2023-05-22T04:28:46.081Z,95.60
2023-05-22T04:31:14.719Z,95.50
2023-05-22T04:33:42.888Z,95.60
2023-05-22T04:36:13.025Z,95.50
2023-05-22T04:38:41.345Z,95.50
2023-05-22T04:41:10.303Z,95.40
2023-05-22T04:43:38.743Z,95.30
2023-05-22T04:46:08.340Z,95.30
2023-05-22T04:48:36.872Z,95.30
2023-05-22T04:51:06.323Z,95.30
2023-05-22T04:53:36.052Z,95.20
2023-05-22T04:56:04.256Z,95.10
2023-05-22T04:58:32.469Z,95.10
2023-05-22T05:01:00.837Z,95.30
2023-05-22T05:03:29.898Z,95.30
2023-05-22T05:05:59.516Z,95.10
2023-05-22T05:08:27.729Z,95.10
2023-05-22T05:10:57.248Z,95.10
2023-05-22T05:13:25.438Z,94.60
2023-05-22T05:15:53.561Z,93.70
2023-05-22T05:18:21.827Z,93.70
2023-05-22T05:20:50.232Z,93.70
2023-05-22T05:23:18.378Z,93.60
2023-05-22T05:25:46.653Z,93.90
2023-05-22T05:28:16.665Z,94.30
2023-05-22T05:30:44.882Z,94.10
2023-05-22T05:33:13.087Z,94.10
2023-05-22T05:35:43.005Z,93.80
2023-05-22T05:38:11.354Z,94.00
2023-05-22T05:40:39.799Z,93.80
2023-05-22T05:43:09.351Z,93.50
2023-05-22T05:45:39.225Z,93.20
2023-05-22T05:48:08.210Z,93.10
2023-05-22T05:50:36.943Z,93.10
2023-05-22T05:53:05.161Z,92.70
2023-05-22T05:55:34.581Z,92.50
2023-05-22T05:58:02.912Z,92.50
2023-05-22T06:00:31.352Z,92.30
2023-05-22T06:03:01.234Z,91.90
2023-05-22T06:05:30.136Z,91.30
2023-05-22T06:07:58.921Z,91.40
2023-05-22T06:10:27.079Z,90.50
2023-05-22T06:12:55.734Z,89.90
2023-05-22T06:15:23.965Z,89.20
2023-05-22T06:17:52.204Z,90.30
2023-05-22T06:20:22.228Z,90.40
2023-05-22T06:22:50.660Z,90.60
2023-05-22T06:25:19.053Z,90.40
2023-05-22T06:27:47.424Z,90.50
2023-05-22T06:30:20.327Z,90.00
2023-05-22T06:32:56.727Z,90.30
2023-05-22T06:35:26.464Z,89.50
2023-05-22T06:37:54.761Z,89.60
2023-05-22T06:40:23.162Z,90.10
2023-05-22T06:42:51.607Z,90.60
2023-05-22T06:45:20.053Z,91.00
2023-05-22T06:47:48.388Z,91.00
2023-05-22T06:50:17.087Z,91.40
2023-05-22T06:52:46.725Z,91.90
2023-05-22T06:55:14.923Z,91.70
2023-05-22T06:57:43.097Z,91.60
2023-05-22T07:00:12.851Z,91.10
2023-05-22T07:02:41.193Z,91.00
2023-05-22T07:05:09.726Z,90.80
2023-05-22T07:07:38.021Z,91.00
2023-05-22T07:10:08.924Z,90.60
2023-05-22T07:12:37.371Z,90.60
2023-05-22T07:15:06.086Z,90.80
2023-05-22T07:17:34.922Z,90.40
2023-05-22T07:20:03.655Z,90.60
2023-05-22T07:22:31.948Z,90.70
2023-05-22T07:25:00.292Z,90.90
2023-05-22T07:27:30.137Z,90.60
2023-05-22T07:29:58.467Z,89.30
2023-05-22T07:32:26.792Z,88.10
2023-05-22T07:34:55.090Z,87.20
2023-05-22T07:37:23.419Z,88.50
2023-05-22T07:39:51.740Z,88.90
2023-05-22T07:42:20.184Z,89.10
2023-05-22T07:44:50.347Z,90.00
2023-05-22T07:47:18.794Z,90.20
2023-05-22T07:49:46.913Z,90.30
2023-05-22T07:52:15.121Z,90.10
2023-05-22T07:54:45.197Z,90.10
2023-05-22T07:57:15.709Z,90.40
2023-05-22T07:59:44.140Z,88.90
2023-05-22T08:02:14.304Z,89.10
2023-05-22T08:04:42.710Z,88.70
2023-05-22T08:07:11.084Z,87.70
2023-05-22T08:09:39.809Z,88.70
2023-05-22T08:12:09.064Z,87.60
2023-05-22T08:14:38.049Z,85.90
2023-05-22T08:17:06.599Z,85.60
2023-05-22T08:19:36.737Z,85.80
2023-05-22T08:22:05.235Z,87.10
2023-05-22T08:24:33.726Z,86.20
2023-05-22T08:27:02.170Z,86.90
2023-05-22T08:29:30.770Z,88.20
2023-05-22T08:31:59.135Z,87.30
2023-05-22T08:34:28.421Z,88.10
2023-05-22T08:36:59.149Z,87.90
2023-05-22T08:39:27.332Z,87.70
2023-05-22T08:41:56.046Z,87.80
2023-05-22T08:44:25.286Z,88.10
2023-05-22T08:46:53.761Z,88.10
2023-05-22T08:49:24.035Z,89.20
2023-05-22T08:51:58.216Z,89.00
2023-05-22T08:54:29.807Z,89.60
2023-05-22T08:56:58.776Z,89.60
2023-05-22T08:59:27.086Z,89.90
2023-05-22T09:01:55.858Z,90.10
2023-05-22T09:04:25.560Z,90.00
2023-05-22T09:06:55.175Z,90.20
2023-05-22T09:09:24.781Z,90.20
2023-05-22T09:11:55.201Z,90.20
2023-05-22T09:14:23.352Z,90.50
2023-05-22T09:16:56.609Z,90.50
2023-05-22T09:19:24.930Z,90.70
2023-05-22T09:21:53.158Z,90.90
2023-05-22T09:24:21.467Z,90.70
2023-05-22T09:26:52.559Z,90.70
2023-05-22T09:29:20.818Z,90.80
2023-05-22T09:31:49.738Z,91.20
2023-05-22T09:34:18.278Z,90.70
2023-05-22T09:36:46.711Z,90.60
2023-05-22T09:39:15.567Z,90.20
2023-05-22T09:41:45.865Z,90.40
2023-05-22T09:44:16.789Z,90.50
2023-05-22T09:46:47.991Z,90.40
2023-05-22T09:49:17.266Z,90.20
2023-05-22T09:51:48.881Z,90.00
2023-05-22T09:54:18.454Z,89.20
2023-05-22T09:56:50.273Z,89.10
2023-05-22T09:59:23.608Z,89.10
2023-05-22T10:01:52.750Z,89.20
2023-05-22T10:04:24.215Z,88.80
2023-05-22T10:06:54.907Z,88.80
2023-05-22T10:09:30.672Z,88.60
2023-05-22T10:12:04.123Z,88.80
2023-05-22T10:14:35.789Z,88.70
2023-05-22T10:17:07.098Z,88.90
2023-05-22T10:19:39.760Z,89.50
2023-05-22T10:22:10.294Z,88.50
2023-05-22T10:24:39.293Z,88.40
2023-05-22T10:27:07.696Z,88.80
2023-05-22T10:29:44.330Z,88.30
2023-05-22T10:32:19.786Z,88.30
2023-05-22T10:34:55.511Z,87.80
2023-05-22T10:37:43.245Z,86.50
2023-05-22T10:40:14.271Z,86.90
2023-05-22T10:42:43.104Z,87.30
2023-05-22T10:45:13.086Z,87.20
2023-05-22T10:47:41.542Z,87.20
2023-05-22T10:50:11.361Z,86.90
2023-05-22T10:52:40.817Z,86.40
2023-05-22T10:55:10.322Z,86.20
2023-05-22T10:57:39.643Z,86.80
2023-05-22T11:00:09.749Z,86.80
2023-05-22T11:02:43.954Z,86.40
2023-05-22T11:05:37.628Z,86.50
2023-05-22T11:08:37.572Z,86.10
2023-05-22T11:11:15.105Z,85.80
2023-05-22T11:13:43.918Z,86.10
2023-05-22T11:16:12.523Z,85.90
2023-05-22T11:18:43.240Z,86.30
2023-05-22T11:21:13.960Z,86.20
2023-05-22T11:23:42.928Z,85.70
2023-05-22T11:26:25.546Z,85.50
2023-05-22T11:28:56.916Z,85.40
2023-05-22T11:31:26.679Z,85.70
2023-05-22T11:33:56.782Z,85.60
2023-05-22T11:36:26.231Z,85.70
2023-05-22T11:38:59.933Z,85.80
2023-05-22T11:41:33.668Z,86.00
2023-05-22T11:44:03.950Z,84.80
2023-05-22T11:46:32.320Z,85.40
2023-05-22T11:49:02.417Z,85.40
2023-05-22T11:51:31.156Z,84.70
2023-05-22T11:53:59.583Z,84.70
2023-05-22T11:56:27.879Z,83.50
2023-05-22T11:58:56.299Z,83.50
2023-05-22T12:01:24.564Z,83.70
2023-05-22T12:03:52.998Z,83.00
2023-05-22T12:06:22.920Z,82.90
2023-05-22T12:08:51.451Z,82.00
2023-05-22T12:11:19.774Z,81.70
2023-05-22T12:13:52.246Z,81.50
2023-05-22T12:16:23.224Z,81.10
2023-05-22T12:18:54.710Z,80.70
2023-05-22T12:21:24.512Z,80.70
2023-05-22T12:23:53.337Z,80.30
2023-05-22T12:26:22.058Z,81.00
2023-05-22T12:28:54.557Z,81.10
2023-05-22T12:31:23.393Z,81.30
2023-05-22T12:33:55.418Z,81.40
2023-05-22T12:36:35.201Z,80.90
2023-05-22T12:39:03.815Z,80.80
2023-05-22T12:41:32.384Z,80.90
2023-05-22T12:44:02.523Z,80.70
2023-05-22T12:46:32.263Z,80.50
2023-05-22T12:49:01.801Z,80.60
2023-05-22T12:51:33.482Z,79.70
2023-05-22T12:54:03.090Z,80.20
2023-05-22T12:56:32.788Z,79.60
2023-05-22T12:59:01.413Z,79.40
2023-05-22T13:01:29.728Z,79.60
2023-05-22T13:03:57.994Z,79.50
2023-05-22T13:06:27.984Z,79.80
2023-05-22T13:08:59.680Z,79.20
2023-05-22T13:11:27.982Z,78.50
2023-05-22T13:13:56.202Z,78.60
2023-05-22T13:16:24.582Z,79.10
2023-05-22T13:18:53.026Z,79.20
2023-05-22T13:21:21.465Z,78.80
2023-05-22T13:23:50.149Z,78.80
2023-05-22T13:26:19.895Z,78.80
2023-05-22T13:28:48.365Z,79.10
2023-05-22T13:31:16.887Z,79.70
2023-05-22T13:33:46.077Z,79.40
2023-05-22T13:36:14.685Z,79.20
2023-05-22T13:38:43.076Z,79.20
2023-05-22T13:41:11.416Z,78.60
2023-05-22T13:43:41.133Z,78.40
2023-05-22T13:46:09.431Z,77.70
2023-05-22T13:48:37.600Z,77.10
2023-05-22T13:51:06.417Z,77.60
2023-05-22T13:53:35.425Z,78.00
2023-05-22T13:56:03.734Z,77.80
2023-05-22T13:58:31.889Z,77.40
2023-05-22T14:01:01.612Z,76.30
2023-05-22T14:03:29.902Z,75.50
2023-05-22T14:05:58.060Z,75.90
2023-05-22T14:08:26.299Z,75.60
2023-05-22T14:10:54.534Z,75.40
2023-05-22T14:13:22.909Z,76.10
2023-05-22T14:15:51.248Z,75.30
2023-05-22T14:18:21.065Z,75.80
2023-05-22T14:20:49.636Z,75.30
2023-05-22T14:23:17.941Z,75.70
2023-05-22T14:25:46.275Z,75.30
2023-05-22T14:28:15.129Z,75.20
2023-05-22T14:30:43.974Z,74.10
2023-05-22T14:33:12.494Z,73.80
2023-05-22T14:35:42.416Z,73.50
2023-05-22T14:38:10.781Z,72.80
2023-05-22T14:40:39.293Z,73.20
2023-05-22T14:43:07.482Z,73.50
2023-05-22T14:45:35.817Z,73.00
2023-05-22T14:48:04.877Z,72.60
2023-05-22T14:50:33.192Z,72.40
2023-05-22T14:53:02.788Z,72.70
2023-05-22T14:55:31.799Z,73.10
2023-05-22T14:57:59.991Z,73.40
2023-05-22T15:00:28.254Z,72.40
2023-05-22T15:02:56.417Z,72.30
2023-05-22T15:05:26.765Z,72.50
2023-05-22T15:07:58.512Z,72.90
2023-05-22T15:10:28.223Z,72.60
2023-05-22T15:12:56.572Z,72.80
2023-05-22T15:15:25.076Z,72.60
2023-05-22T15:17:53.494Z,73.00
2023-05-22T15:20:22.225Z,72.80
2023-05-22T15:22:50.766Z,73.20
2023-05-22T15:25:22.152Z,72.30
2023-05-22T15:27:52.004Z,72.60
2023-05-22T15:30:22.195Z,73.10
2023-05-22T15:32:50.572Z,73.30
2023-05-22T15:35:18.966Z,73.10
2023-05-22T15:37:47.264Z,71.70
2023-05-22T15:40:18.437Z,73.00
2023-05-22T15:42:46.787Z,72.50
2023-05-22T15:45:16.329Z,72.60
2023-05-22T15:47:44.548Z,72.30
2023-05-22T15:50:12.733Z,72.40
2023-05-22T15:52:41.051Z,72.40
2023-05-22T15:55:09.748Z,72.10
2023-05-22T15:57:38.167Z,72.00
2023-05-22T16:00:08.178Z,72.20
2023-05-22T16:02:37.928Z,72.80
2023-05-22T16:05:06.711Z,72.80
2023-05-22T16:07:34.882Z,72.90
2023-05-22T16:10:04.445Z,73.10
2023-05-22T16:12:32.945Z,73.40
2023-05-22T16:15:02.737Z,73.40
2023-05-22T16:17:32.507Z,73.50
2023-05-22T16:20:04.640Z,72.80
2023-05-22T16:22:47.256Z,73.30
2023-05-22T16:25:17.777Z,72.90
2023-05-22T16:27:46.325Z,72.90
2023-05-22T16:30:17.432Z,72.80
2023-05-22T16:32:47.336Z,72.80
2023-05-22T16:35:19.545Z,73.10
2023-05-22T16:37:47.802Z,73.50
2023-05-22T16:40:16.239Z,73.50
2023-05-22T16:42:44.420Z,73.70
2023-05-22T16:45:12.847Z,73.70
2023-05-22T16:47:41.623Z,73.90
2023-05-22T16:50:10.228Z,74.00
2023-05-22T16:52:39.836Z,74.10
2023-05-22T16:55:09.467Z,74.00
2023-05-22T16:57:37.713Z,74.30
2023-05-22T17:00:10.937Z,73.70
2023-05-22T17:02:39.466Z,74.10
2023-05-22T17:05:08.696Z,74.30
2023-05-22T17:07:36.998Z,74.70
2023-05-22T17:10:07.481Z,74.80
2023-05-22T17:12:35.763Z,75.00
2023-05-22T17:15:04.059Z,74.70
2023-05-22T17:17:32.192Z,74.80
2023-05-22T17:20:01.630Z,74.70
2023-05-22T17:22:29.874Z,74.40
2023-05-22T17:24:58.016Z,74.40
2023-05-22T17:27:35.555Z,74.60
2023-05-22T17:30:06.093Z,74.60
2023-05-22T17:32:34.865Z,75.70
2023-05-22T17:35:04.976Z,75.20
2023-05-22T17:37:33.280Z,75.40
2023-05-22T17:40:01.537Z,75.60
2023-05-22T17:42:31.048Z,75.80
2023-05-22T17:44:59.250Z,76.10
2023-05-22T17:47:27.416Z,76.00
2023-05-22T17:49:55.798Z,76.00
2023-05-22T17:52:23.947Z,76.20
2023-05-22T17:54:52.092Z,76.70
2023-05-22T17:57:20.289Z,76.40
2023-05-22T17:59:50.100Z,76.70
2023-05-22T18:02:18.855Z,76.70
2023-05-22T18:04:48.545Z,76.50
2023-05-22T18:07:17.519Z,76.70
2023-05-22T18:09:45.724Z,76.40
2023-05-22T18:12:30.139Z,76.50
2023-05-22T18:15:00.587Z,76.60
2023-05-22T18:17:28.809Z,76.60
2023-05-22T18:19:57.037Z,76.10
2023-05-22T18:22:25.605Z,76.30
2023-05-22T18:24:53.847Z,76.50
2023-05-22T18:27:21.981Z,76.50
2023-05-22T18:29:50.500Z,77.30
2023-05-22T18:32:20.053Z,76.70
2023-05-22T18:34:48.670Z,77.00
2023-05-22T18:37:18.951Z,77.40
2023-05-22T18:39:47.231Z,77.60
2023-05-22T18:42:15.826Z,77.80
2023-05-22T18:44:43.909Z,78.00
2023-05-22T18:47:12.376Z,78.20
2023-05-22T18:49:42.019Z,78.40
2023-05-22T18:52:10.197Z,78.60
2023-05-22T18:54:38.401Z,78.50
2023-05-22T18:57:06.949Z,78.70
2023-05-22T18:59:35.186Z,78.90
2023-05-22T19:02:03.351Z,79.00
2023-05-22T19:04:31.640Z,79.20
2023-05-22T19:07:01.215Z,79.20
2023-05-22T19:09:29.347Z,79.20
2023-05-22T19:11:57.572Z,79.50
2023-05-22T19:14:25.860Z,79.40
2023-05-22T19:16:54.132Z,79.60
2023-05-22T19:19:22.587Z,79.70
2023-05-22T19:21:51.144Z,79.80
2023-05-22T19:24:20.774Z,80.00
2023-05-22T19:26:49.061Z,80.20
2023-05-22T19:29:17.454Z,80.20
2023-05-22T19:31:45.711Z,80.30
2023-05-22T19:34:13.884Z,80.50
2023-05-22T19:36:42.072Z,80.40
2023-05-22T19:39:10.425Z,80.50
2023-05-22T19:41:40.034Z,80.30
2023-05-22T19:44:08.822Z,80.40
2023-05-22T19:46:37.493Z,80.50
2023-05-22T19:49:05.961Z,80.60
2023-05-22T19:51:34.534Z,80.60
2023-05-22T19:54:03.135Z,80.70
2023-05-22T19:56:31.666Z,80.80
2023-05-22T19:59:01.814Z,80.90
2023-05-22T20:01:30.261Z,81.00
2023-05-22T20:03:58.917Z,81.10
2023-05-22T20:06:31.528Z,81.20
2023-05-22T20:09:01.946Z,81.30
2023-05-22T20:11:31.068Z,81.60
2023-05-22T20:14:02.607Z,81.70
2023-05-22T20:16:31.950Z,81.90
2023-05-22T20:19:02.701Z,82.00
2023-05-22T20:21:32.273Z,82.20
2023-05-22T20:24:00.921Z,82.30
2023-05-22T20:26:29.620Z,82.40
2023-05-22T20:28:58.350Z,82.60
2023-05-22T20:31:28.292Z,82.70
2023-05-22T20:33:59.264Z,82.90
2023-05-22T20:36:28.351Z,83.00
2023-05-22T20:38:58.500Z,83.10
2023-05-22T20:41:27.422Z,83.40
2023-05-22T20:43:56.214Z,83.50
2023-05-22T20:46:25.240Z,83.70
2023-05-22T20:48:55.231Z,84.10
2023-05-22T20:51:32.607Z,84.00
2023-05-22T20:54:04.069Z,84.20
2023-05-22T20:56:35.849Z,84.40
2023-05-22T20:59:04.305Z,84.50
2023-05-22T21:01:33.078Z,84.60
2023-05-22T21:04:03.090Z,84.80
2023-05-22T21:06:31.776Z,84.80
2023-05-22T21:09:01.779Z,84.90
2023-05-22T21:11:30.292Z,85.80
2023-05-22T21:13:59.095Z,85.10
2023-05-22T21:16:27.683Z,85.10
2023-05-22T21:18:56.367Z,85.20
2023-05-22T21:21:26.353Z,85.30
2023-05-22T21:23:54.898Z,85.30
2023-05-22T21:26:23.529Z,85.20
2023-05-22T21:28:52.234Z,85.20
2023-05-22T21:31:20.893Z,85.40
2023-05-22T21:33:49.391Z,85.40
2023-05-22T21:36:17.974Z,85.50
2023-05-22T21:38:47.978Z,85.50
2023-05-22T21:41:16.906Z,85.60
2023-05-22T21:43:45.856Z,85.50
2023-05-22T21:46:16.949Z,85.60
2023-05-22T21:48:45.330Z,85.80
2023-05-22T21:51:13.631Z,85.90
2023-05-22T21:53:41.993Z,86.10
2023-05-22T21:56:11.763Z,86.10
2023-05-22T21:58:40.134Z,86.30
2023-05-22T22:01:08.385Z,86.30
2023-05-22T22:03:38.737Z,86.20
2023-05-22T22:06:07.603Z,86.50
2023-05-22T22:08:36.095Z,86.40
2023-05-22T22:11:04.573Z,86.50
2023-05-22T22:13:34.321Z,86.70
2023-05-22T22:16:02.956Z,86.70
2023-05-22T22:18:33.638Z,86.80
2023-05-22T22:21:02.503Z,86.70
2023-05-22T22:23:34.627Z,86.80
2023-05-22T22:26:05.359Z,86.90
2023-05-22T22:28:35.639Z,86.90
2023-05-22T22:31:04.241Z,86.90
2023-05-22T22:33:32.901Z,87.10
2023-05-22T22:36:02.032Z,87.00
2023-05-22T22:38:33.012Z,87.00
2023-05-22T22:41:02.246Z,87.10
2023-05-22T22:43:30.677Z,87.20
2023-05-22T22:46:00.842Z,87.20
2023-05-22T22:48:29.334Z,87.40
2023-05-22T22:50:58.252Z,87.50
2023-05-22T22:53:26.728Z,87.50
2023-05-22T22:55:57.281Z,87.40
2023-05-22T22:58:25.929Z,87.50
2023-05-22T23:00:54.873Z,87.60
2023-05-22T23:03:24.904Z,87.60
2023-05-22T23:05:53.503Z,87.80
2023-05-22T23:08:22.085Z,87.80
2023-05-22T23:10:51.112Z,88.00
2023-05-22T23:13:19.715Z,88.10
2023-05-22T23:15:48.080Z,88.10
2023-05-22T23:18:17.045Z,87.90
2023-05-22T23:20:47.147Z,88.30
2023-05-22T23:23:15.483Z,88.40
2023-05-22T23:25:43.766Z,88.70
2023-05-22T23:28:12.214Z,88.60
2023-05-22T23:30:40.403Z,88.80
2023-05-22T23:33:08.905Z,88.90
2023-05-22T23:35:37.848Z,89.10
2023-05-22T23:38:08.083Z,89.20
2023-05-22T23:40:36.512Z,89.30
2023-05-22T23:43:05.059Z,89.50
2023-05-22T23:45:33.394Z,89.50
2023-05-22T23:48:01.932Z,89.60
2023-05-22T23:50:30.369Z,89.60
2023-05-22T23:52:58.756Z,89.60
2023-05-22T23:55:28.476Z,89.80
2023-05-22T23:57:56.664Z,90.00
